Du har inga inställningar för hoppväder.nu

Hoppväder.nu

Senast uppdaterat 06:15

UTC-tid

2020-01-29 kl. 05:15


Sol och måne

Solen går upp 8:21 och går ner 15:50 (beräknade cirkatider)
Nästa fullmåne blir om 11 dagar (2020-02-09)


Väderstation: Skydive Mohed

Väderrapport från: 2019-11-03 kl 11:05:57
Vindriktning: 0°
Vinden har varierat mellan 0° och 0° de senaste 10 minuterna.
Vindstyrka: 0 m/s
Byvind: 0 m/s
Lufttryck: 1005,6 hPa
Temperatur: 4,7°C, känns som: 2,2°C
Daggpunkt: -4,1°C
Luftfuktighet: 53%
Molnbas: 1094 m




METAR

ESSD (Borlänge)
(25 minuter sedan)
ESSD 290450Z AUTO 09006KT 5000 -SN VV007 00/00 Q0987=



ESNN (Sundsvall-Härnösand)
(25 minuter sedan)
ESNN 290450Z 06008KT 010V120 1100 R16/P2000N R34/P2000N -SN VV012 M00/M00 Q0994=












TAF

ESSD (Borlänge)
ESSD



ESNN (Sundsvall-Härnösand)
(45 minuter sedan)
ESNN 290430Z 2905/2912 08015KT 5000 -SN VV015 TEMPO 2905/2912 2000 RASN BKN005=





Kodnycklar till TAF och METAR






LHP

(Mohed är område D2b i Sydöstra delen)







Spotting

Hur fungerar spotthjälpen och Vindkartan?

Markvind är ca 0 m/s.
Vind på 600 m ca 0 m/s.
Vind på 1500 m ca 0 m/s.
Vind på 3000 m ca 0 m/s.
Grisen flyger ca 36 m/s över marken på finalen.
Du driver ca 0 m bakåt i frifall. (0 m)
Lämplig spot är 8 sekunder eller 288 m innan gropen.
(-8s eller -288 m)
För små grupper eller ensamhoppare bör man vänta 4-6 sekunder mellan grupperna.
För större grupper bör man vänta 8-10 sekunder mellan grupperna.


Vindkartan

Senast uppdaterad 06:15


All data kommer från LFV.se,
och från SÖFKs väderstation